createdAt,value
2023-04-22T00:01:15.907Z,972.62
2023-04-22T00:16:17.770Z,972.59
2023-04-22T00:31:19.656Z,972.65
2023-04-22T00:46:21.469Z,972.62
2023-04-22T01:01:23.330Z,972.65
2023-04-22T01:16:25.141Z,972.74
2023-04-22T01:31:26.952Z,972.76
2023-04-22T01:46:28.811Z,972.78
2023-04-22T02:01:30.608Z,972.72
2023-04-22T02:16:32.529Z,972.72
2023-04-22T02:31:34.296Z,972.66
2023-04-22T02:46:36.121Z,972.69
2023-04-22T03:01:37.927Z,972.64
2023-04-22T03:16:39.735Z,972.72
2023-04-22T03:31:41.616Z,972.77
2023-04-22T03:46:43.405Z,972.81
2023-04-22T04:01:45.511Z,972.96
2023-04-22T04:16:47.261Z,973.01
2023-04-22T04:31:49.036Z,973.14
2023-04-22T04:46:50.848Z,973.14
2023-04-22T05:01:52.625Z,973.1
2023-04-22T05:16:54.418Z,973.16
2023-04-22T05:31:56.295Z,973.22
2023-04-22T05:46:58.086Z,973.22
2023-04-22T06:01:59.917Z,973.2
2023-04-22T06:17:01.634Z,973.25
2023-04-22T06:32:03.442Z,973.34
2023-04-22T06:47:05.304Z,973.35
2023-04-22T07:02:07.321Z,973.47
2023-04-22T07:17:09.274Z,973.53
2023-04-22T07:32:11.067Z,973.54
2023-04-22T07:47:12.907Z,973.54
2023-04-22T08:02:14.765Z,973.6
2023-04-22T08:17:16.558Z,973.64
2023-04-22T08:32:18.341Z,973.7
2023-04-22T08:47:20.080Z,973.8
2023-04-22T09:02:21.906Z,973.73
2023-04-22T09:17:23.681Z,973.71
2023-04-22T09:32:25.479Z,973.62
2023-04-22T09:47:27.263Z,973.62
2023-04-22T10:02:29.070Z,973.59
2023-04-22T10:17:30.883Z,973.59
2023-04-22T10:32:32.675Z,973.67
2023-04-22T10:47:34.430Z,973.76
2023-04-22T11:02:36.446Z,973.76
2023-04-22T11:17:38.333Z,973.82
2023-04-22T11:32:40.130Z,973.85
2023-04-22T11:47:41.979Z,973.84
2023-04-22T12:02:43.815Z,973.77
2023-04-22T12:17:45.655Z,973.71
2023-04-22T12:32:47.487Z,973.62
2023-04-22T12:47:49.224Z,973.53
2023-04-22T13:02:51.049Z,973.54
2023-04-22T13:17:52.989Z,973.53
2023-04-22T13:32:54.759Z,973.45
2023-04-22T13:47:56.555Z,973.47
2023-04-22T14:02:58.420Z,973.48
2023-04-22T14:18:00.264Z,973.44
2023-04-22T14:33:02.047Z,973.34
2023-04-22T14:48:03.821Z,973.34
2023-04-22T15:03:05.648Z,973.21
2023-04-22T15:18:07.549Z,973.16
2023-04-22T15:33:09.342Z,973.16
2023-04-22T15:48:11.092Z,972.94
2023-04-22T16:03:13.062Z,972.83
2023-04-22T16:18:14.965Z,972.51
2023-04-22T16:33:16.691Z,972.3
2023-04-22T16:48:18.482Z,972.1
2023-04-22T17:03:20.412Z,972.07
2023-04-22T17:18:22.262Z,971.83
2023-04-22T17:33:24.045Z,971.63
2023-04-22T17:48:25.828Z,971.35
2023-04-22T18:03:27.956Z,970.98
2023-04-22T18:18:29.981Z,970.74
2023-04-22T18:33:31.763Z,970.5
2023-04-22T18:48:33.543Z,970.31
2023-04-22T19:03:35.354Z,970.04
2023-04-22T19:18:37.152Z,969.81
2023-04-22T19:33:38.881Z,969.58
2023-04-22T19:48:40.709Z,969.39
2023-04-22T20:03:42.748Z,969.16
2023-04-22T20:18:44.621Z,969.06
2023-04-22T20:33:46.357Z,968.97
2023-04-22T20:48:48.180Z,968.79
2023-04-22T21:03:50.137Z,968.86
2023-04-22T21:18:51.950Z,968.78
2023-04-22T21:33:53.701Z,968.65
2023-04-22T21:48:55.524Z,968.55
2023-04-22T22:03:57.422Z,968.41
2023-04-22T22:18:59.300Z,968.28
2023-04-22T22:34:01.021Z,968.11
2023-04-22T22:49:02.750Z,968.06
2023-04-22T23:04:04.832Z,967.94
2023-04-22T23:19:06.681Z,967.81
2023-04-22T23:34:08.454Z,967.72
2023-04-22T23:49:10.165Z,967.57
